Terminal Aerodrome Forecast
Issued by NWS

Home | Current Version | Previous Version | Text Only | Print | Product List | Glossary On
Versions: 1 2 3 4 5 6 7 8 9 10 11 12 13 14 15 16 17
000
FTUS45 KBOI 042331
TAFTWF
TAF
KTWF 042331Z 0500/0524 22014G24KT P6SM VCSH SCT050 OVC090
      TEMPO 0502/0503 26020G30KT 6SM -SHRA BR SCT020 BKN035
     FM050300 26015G25KT P6SM -SHRA SCT020 OVC035
      TEMPO 0504/0507 2SM -SHSN BKN015
     FM050700 25017KT P6SM VCSH SCT025 OVC050
     FM051200 24017KT P6SM SCT050 BKN100
     FM051800 25012KT P6SM SCT100 BKN200=

USA.gov is the U.S. government's official web portal to all federal, state and local government web resources and services.